sensor_id;sensor_type;location;lat;lon;timestamp;P1;durP1;ratioP1;P2;durP2;ratioP2
828;SDS011;396;52.558;13.188;2022-08-19T00:00:21;12.20;;;6.60;;
828;SDS011;396;52.558;13.188;2022-08-19T00:02:48;11.10;;;6.50;;
828;SDS011;396;52.558;13.188;2022-08-19T00:05:16;10.33;;;6.30;;
828;SDS011;396;52.558;13.188;2022-08-19T00:07:44;11.30;;;7.60;;
828;SDS011;396;52.558;13.188;2022-08-19T00:10:11;10.40;;;6.40;;
828;SDS011;396;52.558;13.188;2022-08-19T00:12:41;11.90;;;7.33;;
828;SDS011;396;52.558;13.188;2022-08-19T00:15:09;9.70;;;6.37;;
828;SDS011;396;52.558;13.188;2022-08-19T00:17:38;19.83;;;7.20;;
828;SDS011;396;52.558;13.188;2022-08-19T00:20:06;10.73;;;7.23;;
828;SDS011;396;52.558;13.188;2022-08-19T00:22:35;13.17;;;7.50;;
828;SDS011;396;52.558;13.188;2022-08-19T00:25:02;8.30;;;5.63;;
828;SDS011;396;52.558;13.188;2022-08-19T00:27:29;10.40;;;6.30;;
828;SDS011;396;52.558;13.188;2022-08-19T00:29:56;11.17;;;6.40;;
828;SDS011;396;52.558;13.188;2022-08-19T00:32:23;10.03;;;6.10;;
828;SDS011;396;52.558;13.188;2022-08-19T00:34:50;10.07;;;5.97;;
828;SDS011;396;52.558;13.188;2022-08-19T00:37:18;8.90;;;5.53;;
828;SDS011;396;52.558;13.188;2022-08-19T00:39:47;13.30;;;5.83;;
828;SDS011;396;52.558;13.188;2022-08-19T00:42:14;10.47;;;6.40;;
828;SDS011;396;52.558;13.188;2022-08-19T00:44:40;10.30;;;6.00;;
828;SDS011;396;52.558;13.188;2022-08-19T00:47:09;11.10;;;6.43;;
828;SDS011;396;52.558;13.188;2022-08-19T00:49:38;9.83;;;6.43;;
828;SDS011;396;52.558;13.188;2022-08-19T00:52:08;8.53;;;5.80;;
828;SDS011;396;52.558;13.188;2022-08-19T00:54:38;8.20;;;5.40;;
828;SDS011;396;52.558;13.188;2022-08-19T01:17:16;10.83;;;4.80;;
828;SDS011;396;52.558;13.188;2022-08-19T01:19:45;9.50;;;6.30;;
828;SDS011;396;52.558;13.188;2022-08-19T01:22:14;8.87;;;5.33;;
828;SDS011;396;52.558;13.188;2022-08-19T01:24:46;7.77;;;4.90;;
828;SDS011;396;52.558;13.188;2022-08-19T01:27:13;9.43;;;5.13;;
828;SDS011;396;52.558;13.188;2022-08-19T01:29:40;8.73;;;5.80;;
828;SDS011;396;52.558;13.188;2022-08-19T01:32:09;9.67;;;5.40;;
828;SDS011;396;52.558;13.188;2022-08-19T01:34:38;9.00;;;5.37;;
828;SDS011;396;52.558;13.188;2022-08-19T01:37:06;8.57;;;5.17;;
828;SDS011;396;52.558;13.188;2022-08-19T01:39:36;14.67;;;7.17;;
828;SDS011;396;52.558;13.188;2022-08-19T01:42:05;9.47;;;6.07;;
828;SDS011;396;52.558;13.188;2022-08-19T01:44:35;9.93;;;5.90;;
828;SDS011;396;52.558;13.188;2022-08-19T01:47:02;9.20;;;5.33;;
828;SDS011;396;52.558;13.188;2022-08-19T01:49:29;8.27;;;5.77;;
828;SDS011;396;52.558;13.188;2022-08-19T01:51:56;9.73;;;6.20;;
828;SDS011;396;52.558;13.188;2022-08-19T01:54:23;11.17;;;5.50;;
828;SDS011;396;52.558;13.188;2022-08-19T01:56:50;10.70;;;6.10;;
828;SDS011;396;52.558;13.188;2022-08-19T01:59:19;10.27;;;6.57;;
828;SDS011;396;52.558;13.188;2022-08-19T02:01:49;12.53;;;6.73;;
828;SDS011;396;52.558;13.188;2022-08-19T02:04:15;11.30;;;5.90;;
828;SDS011;396;52.558;13.188;2022-08-19T02:06:42;15.70;;;6.30;;
828;SDS011;396;52.558;13.188;2022-08-19T02:09:08;13.33;;;5.67;;
828;SDS011;396;52.558;13.188;2022-08-19T02:11:35;7.70;;;4.83;;
828;SDS011;396;52.558;13.188;2022-08-19T02:14:05;9.53;;;6.20;;
828;SDS011;396;52.558;13.188;2022-08-19T02:16:34;10.20;;;6.33;;
828;SDS011;396;52.558;13.188;2022-08-19T02:19:03;10.50;;;6.50;;
828;SDS011;396;52.558;13.188;2022-08-19T02:21:30;11.63;;;6.43;;
828;SDS011;396;52.558;13.188;2022-08-19T02:23:57;10.90;;;7.00;;
828;SDS011;396;52.558;13.188;2022-08-19T02:26:24;9.40;;;5.77;;
828;SDS011;396;52.558;13.188;2022-08-19T02:28:52;12.20;;;6.87;;
828;SDS011;396;52.558;13.188;2022-08-19T02:31:20;12.00;;;7.47;;
828;SDS011;396;52.558;13.188;2022-08-19T02:33:49;14.40;;;6.93;;
828;SDS011;396;52.558;13.188;2022-08-19T02:36:17;15.03;;;6.43;;
828;SDS011;396;52.558;13.188;2022-08-19T02:38:44;14.20;;;7.43;;
828;SDS011;396;52.558;13.188;2022-08-19T02:41:12;13.00;;;8.40;;
828;SDS011;396;52.558;13.188;2022-08-19T02:43:40;16.17;;;8.47;;
828;SDS011;396;52.558;13.188;2022-08-19T02:46:14;14.53;;;8.53;;
828;SDS011;396;52.558;13.188;2022-08-19T02:48:42;13.67;;;9.07;;
828;SDS011;396;52.558;13.188;2022-08-19T02:51:14;16.33;;;8.70;;
828;SDS011;396;52.558;13.188;2022-08-19T02:53:42;20.43;;;9.00;;
828;SDS011;396;52.558;13.188;2022-08-19T02:56:09;15.43;;;8.63;;
828;SDS011;396;52.558;13.188;2022-08-19T02:58:35;12.90;;;8.70;;
828;SDS011;396;52.558;13.188;2022-08-19T03:01:02;14.57;;;8.87;;
828;SDS011;396;52.558;13.188;2022-08-19T03:03:28;14.23;;;8.77;;
828;SDS011;396;52.558;13.188;2022-08-19T03:06:07;18.43;;;9.57;;
828;SDS011;396;52.558;13.188;2022-08-19T03:08:38;15.97;;;8.53;;
828;SDS011;396;52.558;13.188;2022-08-19T03:11:06;12.70;;;7.47;;
828;SDS011;396;52.558;13.188;2022-08-19T03:13:38;14.90;;;7.57;;
828;SDS011;396;52.558;13.188;2022-08-19T03:16:05;12.67;;;7.67;;
828;SDS011;396;52.558;13.188;2022-08-19T03:18:31;21.47;;;8.60;;
828;SDS011;396;52.558;13.188;2022-08-19T03:20:58;11.97;;;7.93;;
828;SDS011;396;52.558;13.188;2022-08-19T03:23:25;11.67;;;7.60;;
828;SDS011;396;52.558;13.188;2022-08-19T03:25:53;12.63;;;7.73;;
828;SDS011;396;52.558;13.188;2022-08-19T03:28:19;16.00;;;9.43;;
828;SDS011;396;52.558;13.188;2022-08-19T03:30:56;11.83;;;7.40;;
828;SDS011;396;52.558;13.188;2022-08-19T03:33:23;10.50;;;6.30;;
828;SDS011;396;52.558;13.188;2022-08-19T03:36:07;10.77;;;6.63;;
828;SDS011;396;52.558;13.188;2022-08-19T03:38:39;12.20;;;7.20;;
828;SDS011;396;52.558;13.188;2022-08-19T03:41:10;13.07;;;7.57;;
828;SDS011;396;52.558;13.188;2022-08-19T03:43:39;13.90;;;8.13;;
828;SDS011;396;52.558;13.188;2022-08-19T03:46:07;15.27;;;8.23;;
828;SDS011;396;52.558;13.188;2022-08-19T03:48:36;11.53;;;7.27;;
828;SDS011;396;52.558;13.188;2022-08-19T03:51:03;11.50;;;7.67;;
828;SDS011;396;52.558;13.188;2022-08-19T03:53:31;12.90;;;7.60;;
828;SDS011;396;52.558;13.188;2022-08-19T03:55:59;13.70;;;7.60;;
828;SDS011;396;52.558;13.188;2022-08-19T03:58:28;9.80;;;6.53;;
828;SDS011;396;52.558;13.188;2022-08-19T04:00:56;14.00;;;7.63;;
828;SDS011;396;52.558;13.188;2022-08-19T04:03:22;9.90;;;6.67;;
828;SDS011;396;52.558;13.188;2022-08-19T04:05:49;12.10;;;7.17;;
828;SDS011;396;52.558;13.188;2022-08-19T04:08:16;12.90;;;7.20;;
828;SDS011;396;52.558;13.188;2022-08-19T04:10:43;9.83;;;6.27;;
828;SDS011;396;52.558;13.188;2022-08-19T04:13:10;12.13;;;7.17;;
828;SDS011;396;52.558;13.188;2022-08-19T04:15:40;11.40;;;6.83;;
828;SDS011;396;52.558;13.188;2022-08-19T04:18:07;10.67;;;7.47;;
828;SDS011;396;52.558;13.188;2022-08-19T04:20:38;10.90;;;6.90;;
828;SDS011;396;52.558;13.188;2022-08-19T04:23:06;11.10;;;6.47;;
828;SDS011;396;52.558;13.188;2022-08-19T04:25:36;14.30;;;6.83;;
828;SDS011;396;52.558;13.188;2022-08-19T04:28:04;10.97;;;7.20;;
828;SDS011;396;52.558;13.188;2022-08-19T04:30:30;14.63;;;7.53;;
828;SDS011;396;52.558;13.188;2022-08-19T04:33:04;14.07;;;7.63;;
828;SDS011;396;52.558;13.188;2022-08-19T04:35:34;11.50;;;7.33;;
828;SDS011;396;52.558;13.188;2022-08-19T04:38:02;11.10;;;7.07;;
828;SDS011;396;52.558;13.188;2022-08-19T04:40:28;10.40;;;6.93;;
828;SDS011;396;52.558;13.188;2022-08-19T04:43:12;12.80;;;8.17;;
828;SDS011;396;52.558;13.188;2022-08-19T04:45:40;11.97;;;7.13;;
828;SDS011;396;52.558;13.188;2022-08-19T04:48:09;11.33;;;5.77;;
828;SDS011;396;52.558;13.188;2022-08-19T04:50:35;13.27;;;7.33;;
828;SDS011;396;52.558;13.188;2022-08-19T04:53:02;11.23;;;6.70;;
828;SDS011;396;52.558;13.188;2022-08-19T04:55:30;12.63;;;7.43;;
828;SDS011;396;52.558;13.188;2022-08-19T04:57:56;14.33;;;7.07;;
828;SDS011;396;52.558;13.188;2022-08-19T05:00:23;12.03;;;6.70;;
828;SDS011;396;52.558;13.188;2022-08-19T05:02:49;10.23;;;6.93;;
828;SDS011;396;52.558;13.188;2022-08-19T05:05:17;10.30;;;6.07;;
828;SDS011;396;52.558;13.188;2022-08-19T05:07:44;10.47;;;6.50;;
828;SDS011;396;52.558;13.188;2022-08-19T05:10:11;10.30;;;6.50;;
828;SDS011;396;52.558;13.188;2022-08-19T05:12:38;17.70;;;7.40;;
828;SDS011;396;52.558;13.188;2022-08-19T05:15:05;11.30;;;6.53;;
828;SDS011;396;52.558;13.188;2022-08-19T05:17:33;8.60;;;7.00;;
828;SDS011;396;52.558;13.188;2022-08-19T05:20:00;11.17;;;7.00;;
828;SDS011;396;52.558;13.188;2022-08-19T05:22:51;11.37;;;6.77;;
828;SDS011;396;52.558;13.188;2022-08-19T05:25:18;11.50;;;6.67;;
828;SDS011;396;52.558;13.188;2022-08-19T05:27:47;14.03;;;7.93;;
828;SDS011;396;52.558;13.188;2022-08-19T05:30:14;14.53;;;7.80;;
828;SDS011;396;52.558;13.188;2022-08-19T05:32:41;13.40;;;7.37;;
828;SDS011;396;52.558;13.188;2022-08-19T05:35:07;10.87;;;7.17;;
828;SDS011;396;52.558;13.188;2022-08-19T05:37:34;13.13;;;6.97;;
828;SDS011;396;52.558;13.188;2022-08-19T05:40:02;11.53;;;6.90;;
828;SDS011;396;52.558;13.188;2022-08-19T05:42:29;11.23;;;7.33;;
828;SDS011;396;52.558;13.188;2022-08-19T05:44:56;9.70;;;6.63;;
828;SDS011;396;52.558;13.188;2022-08-19T05:47:23;13.13;;;6.70;;
828;SDS011;396;52.558;13.188;2022-08-19T05:49:51;9.13;;;6.83;;
828;SDS011;396;52.558;13.188;2022-08-19T05:52:21;12.60;;;6.93;;
828;SDS011;396;52.558;13.188;2022-08-19T05:54:47;11.43;;;7.30;;
828;SDS011;396;52.558;13.188;2022-08-19T05:57:17;13.97;;;8.20;;
828;SDS011;396;52.558;13.188;2022-08-19T05:59:44;14.87;;;7.30;;
828;SDS011;396;52.558;13.188;2022-08-19T06:02:13;12.80;;;8.07;;
828;SDS011;396;52.558;13.188;2022-08-19T06:04:40;19.10;;;9.10;;
828;SDS011;396;52.558;13.188;2022-08-19T06:07:07;12.70;;;6.03;;
828;SDS011;396;52.558;13.188;2022-08-19T06:09:34;9.70;;;6.07;;
828;SDS011;396;52.558;13.188;2022-08-19T06:12:02;11.53;;;6.93;;
828;SDS011;396;52.558;13.188;2022-08-19T06:14:31;14.53;;;7.23;;
828;SDS011;396;52.558;13.188;2022-08-19T06:17:00;12.50;;;7.23;;
828;SDS011;396;52.558;13.188;2022-08-19T06:19:29;11.93;;;5.93;;
828;SDS011;396;52.558;13.188;2022-08-19T06:21:56;15.17;;;7.50;;
828;SDS011;396;52.558;13.188;2022-08-19T06:24:24;8.50;;;5.37;;
828;SDS011;396;52.558;13.188;2022-08-19T06:26:53;12.67;;;7.33;;
828;SDS011;396;52.558;13.188;2022-08-19T06:29:22;13.63;;;7.10;;
828;SDS011;396;52.558;13.188;2022-08-19T06:31:53;11.03;;;6.40;;
828;SDS011;396;52.558;13.188;2022-08-19T06:34:21;9.57;;;6.60;;
828;SDS011;396;52.558;13.188;2022-08-19T06:36:49;14.53;;;6.43;;
828;SDS011;396;52.558;13.188;2022-08-19T06:39:17;9.90;;;6.00;;
828;SDS011;396;52.558;13.188;2022-08-19T06:41:50;11.80;;;6.80;;
828;SDS011;396;52.558;13.188;2022-08-19T06:44:18;10.57;;;7.50;;
828;SDS011;396;52.558;13.188;2022-08-19T06:46:46;9.80;;;5.63;;
828;SDS011;396;52.558;13.188;2022-08-19T06:49:16;10.47;;;6.87;;
828;SDS011;396;52.558;13.188;2022-08-19T06:51:43;10.90;;;7.63;;
828;SDS011;396;52.558;13.188;2022-08-19T06:54:12;11.33;;;6.40;;
828;SDS011;396;52.558;13.188;2022-08-19T06:56:39;10.07;;;5.90;;
828;SDS011;396;52.558;13.188;2022-08-19T06:59:07;12.43;;;7.10;;
828;SDS011;396;52.558;13.188;2022-08-19T07:01:35;8.87;;;5.50;;
828;SDS011;396;52.558;13.188;2022-08-19T07:04:03;10.30;;;6.50;;
828;SDS011;396;52.558;13.188;2022-08-19T07:06:32;12.20;;;6.80;;
828;SDS011;396;52.558;13.188;2022-08-19T07:08:58;12.53;;;7.90;;
828;SDS011;396;52.558;13.188;2022-08-19T07:11:25;11.00;;;6.90;;
828;SDS011;396;52.558;13.188;2022-08-19T07:13:55;10.90;;;6.93;;
828;SDS011;396;52.558;13.188;2022-08-19T07:16:22;13.90;;;7.03;;
828;SDS011;396;52.558;13.188;2022-08-19T07:18:48;13.37;;;7.10;;
828;SDS011;396;52.558;13.188;2022-08-19T07:21:17;15.10;;;6.70;;
828;SDS011;396;52.558;13.188;2022-08-19T07:23:46;12.33;;;6.83;;
828;SDS011;396;52.558;13.188;2022-08-19T07:26:15;13.30;;;7.57;;
828;SDS011;396;52.558;13.188;2022-08-19T07:28:44;11.30;;;6.77;;
828;SDS011;396;52.558;13.188;2022-08-19T07:31:11;12.37;;;7.80;;
828;SDS011;396;52.558;13.188;2022-08-19T07:33:39;9.40;;;6.83;;
828;SDS011;396;52.558;13.188;2022-08-19T07:36:09;10.50;;;6.30;;
828;SDS011;396;52.558;13.188;2022-08-19T07:38:37;13.10;;;8.90;;
828;SDS011;396;52.558;13.188;2022-08-19T07:41:07;12.57;;;8.23;;
828;SDS011;396;52.558;13.188;2022-08-19T07:43:35;12.03;;;8.07;;
828;SDS011;396;52.558;13.188;2022-08-19T07:46:01;13.67;;;8.50;;
828;SDS011;396;52.558;13.188;2022-08-19T07:48:28;15.00;;;7.50;;
828;SDS011;396;52.558;13.188;2022-08-19T07:50:56;18.33;;;7.93;;
828;SDS011;396;52.558;13.188;2022-08-19T07:53:24;12.57;;;7.87;;
828;SDS011;396;52.558;13.188;2022-08-19T07:55:51;14.57;;;8.50;;
828;SDS011;396;52.558;13.188;2022-08-19T07:58:20;12.00;;;7.90;;
828;SDS011;396;52.558;13.188;2022-08-19T08:00:48;13.07;;;8.87;;
828;SDS011;396;52.558;13.188;2022-08-19T08:03:17;17.37;;;9.47;;
828;SDS011;396;52.558;13.188;2022-08-19T08:05:45;15.77;;;9.73;;
828;SDS011;396;52.558;13.188;2022-08-19T08:08:30;13.50;;;8.30;;
828;SDS011;396;52.558;13.188;2022-08-19T08:11:15;13.47;;;8.37;;
828;SDS011;396;52.558;13.188;2022-08-19T08:13:45;16.10;;;9.10;;
828;SDS011;396;52.558;13.188;2022-08-19T08:16:13;12.77;;;7.73;;
828;SDS011;396;52.558;13.188;2022-08-19T08:18:40;14.60;;;8.60;;
828;SDS011;396;52.558;13.188;2022-08-19T08:21:08;12.83;;;7.97;;
828;SDS011;396;52.558;13.188;2022-08-19T08:23:35;15.70;;;8.83;;
828;SDS011;396;52.558;13.188;2022-08-19T08:26:01;13.10;;;8.00;;
828;SDS011;396;52.558;13.188;2022-08-19T08:28:29;12.53;;;8.17;;
828;SDS011;396;52.558;13.188;2022-08-19T08:30:57;12.40;;;7.80;;
828;SDS011;396;52.558;13.188;2022-08-19T08:33:25;13.80;;;8.97;;
828;SDS011;396;52.558;13.188;2022-08-19T08:35:55;13.83;;;8.53;;
828;SDS011;396;52.558;13.188;2022-08-19T08:38:21;13.17;;;8.63;;
828;SDS011;396;52.558;13.188;2022-08-19T08:40:48;13.87;;;7.60;;
828;SDS011;396;52.558;13.188;2022-08-19T08:43:21;12.47;;;8.53;;
828;SDS011;396;52.558;13.188;2022-08-19T08:45:53;11.60;;;7.97;;
828;SDS011;396;52.558;13.188;2022-08-19T08:48:29;14.03;;;9.40;;
828;SDS011;396;52.558;13.188;2022-08-19T08:51:02;14.73;;;8.87;;
828;SDS011;396;52.558;13.188;2022-08-19T08:53:31;12.30;;;8.27;;
828;SDS011;396;52.558;13.188;2022-08-19T08:55:58;15.10;;;9.37;;
828;SDS011;396;52.558;13.188;2022-08-19T08:58:29;17.00;;;8.90;;
828;SDS011;396;52.558;13.188;2022-08-19T09:01:07;18.23;;;9.90;;
828;SDS011;396;52.558;13.188;2022-08-19T09:03:37;17.00;;;8.73;;
828;SDS011;396;52.558;13.188;2022-08-19T09:06:06;20.53;;;8.17;;
828;SDS011;396;52.558;13.188;2022-08-19T09:08:39;10.40;;;7.47;;
828;SDS011;396;52.558;13.188;2022-08-19T09:11:12;12.43;;;7.37;;
828;SDS011;396;52.558;13.188;2022-08-19T09:13:48;15.27;;;8.07;;
828;SDS011;396;52.558;13.188;2022-08-19T09:16:33;15.57;;;9.43;;
828;SDS011;396;52.558;13.188;2022-08-19T09:19:03;17.67;;;10.00;;
828;SDS011;396;52.558;13.188;2022-08-19T09:21:32;12.80;;;8.33;;
828;SDS011;396;52.558;13.188;2022-08-19T09:23:59;13.50;;;7.70;;
828;SDS011;396;52.558;13.188;2022-08-19T09:26:26;17.20;;;7.97;;
828;SDS011;396;52.558;13.188;2022-08-19T09:28:54;14.70;;;8.47;;
828;SDS011;396;52.558;13.188;2022-08-19T09:31:24;13.50;;;8.07;;
828;SDS011;396;52.558;13.188;2022-08-19T09:33:52;15.87;;;10.30;;
828;SDS011;396;52.558;13.188;2022-08-19T09:36:23;17.97;;;10.20;;
828;SDS011;396;52.558;13.188;2022-08-19T09:38:53;12.80;;;7.87;;
828;SDS011;396;52.558;13.188;2022-08-19T09:41:22;12.00;;;7.37;;
828;SDS011;396;52.558;13.188;2022-08-19T09:43:51;15.40;;;8.73;;
828;SDS011;396;52.558;13.188;2022-08-19T09:46:18;18.10;;;9.33;;
828;SDS011;396;52.558;13.188;2022-08-19T09:48:47;15.73;;;9.60;;
828;SDS011;396;52.558;13.188;2022-08-19T09:51:16;14.63;;;8.70;;
828;SDS011;396;52.558;13.188;2022-08-19T09:53:46;11.87;;;8.77;;
828;SDS011;396;52.558;13.188;2022-08-19T09:56:15;14.10;;;7.20;;
828;SDS011;396;52.558;13.188;2022-08-19T09:58:43;13.73;;;8.37;;
828;SDS011;396;52.558;13.188;2022-08-19T10:01:14;13.53;;;8.37;;
828;SDS011;396;52.558;13.188;2022-08-19T10:03:42;12.77;;;8.00;;
828;SDS011;396;52.558;13.188;2022-08-19T10:06:08;15.13;;;9.60;;
828;SDS011;396;52.558;13.188;2022-08-19T10:08:35;21.43;;;9.50;;
828;SDS011;396;52.558;13.188;2022-08-19T10:11:06;16.43;;;9.10;;
828;SDS011;396;52.558;13.188;2022-08-19T10:13:33;13.77;;;7.73;;
828;SDS011;396;52.558;13.188;2022-08-19T10:16:02;14.60;;;8.33;;
828;SDS011;396;52.558;13.188;2022-08-19T10:18:31;18.00;;;10.03;;
828;SDS011;396;52.558;13.188;2022-08-19T10:21:02;12.70;;;9.00;;
828;SDS011;396;52.558;13.188;2022-08-19T10:23:33;15.00;;;8.13;;
828;SDS011;396;52.558;13.188;2022-08-19T10:26:01;14.10;;;8.50;;
828;SDS011;396;52.558;13.188;2022-08-19T10:28:31;10.23;;;6.77;;
828;SDS011;396;52.558;13.188;2022-08-19T10:31:02;14.40;;;8.53;;
828;SDS011;396;52.558;13.188;2022-08-19T10:33:31;13.20;;;8.50;;
828;SDS011;396;52.558;13.188;2022-08-19T10:35:58;14.17;;;8.10;;
828;SDS011;396;52.558;13.188;2022-08-19T10:38:25;10.73;;;6.60;;
828;SDS011;396;52.558;13.188;2022-08-19T10:40:53;16.70;;;7.53;;
828;SDS011;396;52.558;13.188;2022-08-19T10:43:20;15.27;;;7.30;;
828;SDS011;396;52.558;13.188;2022-08-19T10:45:49;10.97;;;7.20;;
828;SDS011;396;52.558;13.188;2022-08-19T10:48:18;9.13;;;5.90;;
828;SDS011;396;52.558;13.188;2022-08-19T10:50:45;20.30;;;6.97;;
828;SDS011;396;52.558;13.188;2022-08-19T10:53:29;9.57;;;6.13;;
828;SDS011;396;52.558;13.188;2022-08-19T10:55:55;10.00;;;6.20;;
828;SDS011;396;52.558;13.188;2022-08-19T10:58:39;10.03;;;6.87;;
828;SDS011;396;52.558;13.188;2022-08-19T11:01:08;9.17;;;6.03;;
828;SDS011;396;52.558;13.188;2022-08-19T11:03:34;11.37;;;7.07;;
828;SDS011;396;52.558;13.188;2022-08-19T11:06:01;11.53;;;6.83;;
828;SDS011;396;52.558;13.188;2022-08-19T11:08:29;11.97;;;6.43;;
828;SDS011;396;52.558;13.188;2022-08-19T11:10:57;10.40;;;6.53;;
828;SDS011;396;52.558;13.188;2022-08-19T11:13:26;13.13;;;7.27;;
828;SDS011;396;52.558;13.188;2022-08-19T11:15:57;9.13;;;5.40;;
828;SDS011;396;52.558;13.188;2022-08-19T11:18:26;11.90;;;6.63;;
828;SDS011;396;52.558;13.188;2022-08-19T11:20:52;9.97;;;6.07;;
828;SDS011;396;52.558;13.188;2022-08-19T11:23:19;8.90;;;5.40;;
828;SDS011;396;52.558;13.188;2022-08-19T11:25:45;11.33;;;6.00;;
828;SDS011;396;52.558;13.188;2022-08-19T11:28:12;9.13;;;6.07;;
828;SDS011;396;52.558;13.188;2022-08-19T11:30:39;8.00;;;5.10;;
828;SDS011;396;52.558;13.188;2022-08-19T11:33:05;9.37;;;5.67;;
828;SDS011;396;52.558;13.188;2022-08-19T11:35:33;9.87;;;5.63;;
828;SDS011;396;52.558;13.188;2022-08-19T11:37:59;8.13;;;4.80;;
828;SDS011;396;52.558;13.188;2022-08-19T11:40:27;7.20;;;5.00;;
828;SDS011;396;52.558;13.188;2022-08-19T11:42:54;9.03;;;5.23;;
828;SDS011;396;52.558;13.188;2022-08-19T11:45:21;9.50;;;5.73;;
828;SDS011;396;52.558;13.188;2022-08-19T11:47:47;8.57;;;4.70;;
828;SDS011;396;52.558;13.188;2022-08-19T11:50:14;6.70;;;5.00;;
828;SDS011;396;52.558;13.188;2022-08-19T11:52:43;9.33;;;5.87;;
828;SDS011;396;52.558;13.188;2022-08-19T11:55:10;17.13;;;4.73;;
828;SDS011;396;52.558;13.188;2022-08-19T11:57:38;7.33;;;4.20;;
828;SDS011;396;52.558;13.188;2022-08-19T12:00:06;8.90;;;6.30;;
828;SDS011;396;52.558;13.188;2022-08-19T12:02:34;9.17;;;4.60;;
828;SDS011;396;52.558;13.188;2022-08-19T12:05:00;7.40;;;5.00;;
828;SDS011;396;52.558;13.188;2022-08-19T12:07:28;9.77;;;5.10;;
828;SDS011;396;52.558;13.188;2022-08-19T12:09:57;7.70;;;4.90;;
828;SDS011;396;52.558;13.188;2022-08-19T12:12:24;10.60;;;4.90;;
828;SDS011;396;52.558;13.188;2022-08-19T12:14:51;7.87;;;5.03;;
828;SDS011;396;52.558;13.188;2022-08-19T12:17:21;8.87;;;5.20;;
828;SDS011;396;52.558;13.188;2022-08-19T12:19:48;8.03;;;4.70;;
828;SDS011;396;52.558;13.188;2022-08-19T12:22:14;9.13;;;5.23;;
828;SDS011;396;52.558;13.188;2022-08-19T12:24:41;7.33;;;4.70;;
828;SDS011;396;52.558;13.188;2022-08-19T12:27:09;7.07;;;4.90;;
828;SDS011;396;52.558;13.188;2022-08-19T12:29:36;8.60;;;4.60;;
828;SDS011;396;52.558;13.188;2022-08-19T12:32:02;10.23;;;5.37;;
828;SDS011;396;52.558;13.188;2022-08-19T12:34:29;9.10;;;5.10;;
828;SDS011;396;52.558;13.188;2022-08-19T12:36:56;8.20;;;4.93;;
828;SDS011;396;52.558;13.188;2022-08-19T12:39:24;7.70;;;4.87;;
828;SDS011;396;52.558;13.188;2022-08-19T12:41:51;7.13;;;4.60;;
828;SDS011;396;52.558;13.188;2022-08-19T12:44:19;11.53;;;6.17;;
828;SDS011;396;52.558;13.188;2022-08-19T12:46:46;8.50;;;4.70;;
828;SDS011;396;52.558;13.188;2022-08-19T12:49:14;6.63;;;4.27;;
828;SDS011;396;52.558;13.188;2022-08-19T12:51:40;10.10;;;4.80;;
828;SDS011;396;52.558;13.188;2022-08-19T12:54:07;10.27;;;5.00;;
828;SDS011;396;52.558;13.188;2022-08-19T12:56:34;8.93;;;4.93;;
828;SDS011;396;52.558;13.188;2022-08-19T12:59:00;9.40;;;4.30;;
828;SDS011;396;52.558;13.188;2022-08-19T13:01:28;12.10;;;6.23;;
828;SDS011;396;52.558;13.188;2022-08-19T13:03:57;8.20;;;4.93;;
828;SDS011;396;52.558;13.188;2022-08-19T13:06:24;8.20;;;4.83;;
828;SDS011;396;52.558;13.188;2022-08-19T13:08:50;9.60;;;5.83;;
828;SDS011;396;52.558;13.188;2022-08-19T13:11:18;10.57;;;5.80;;
828;SDS011;396;52.558;13.188;2022-08-19T13:13:49;9.57;;;5.13;;
828;SDS011;396;52.558;13.188;2022-08-19T13:16:17;12.07;;;5.60;;
828;SDS011;396;52.558;13.188;2022-08-19T13:18:48;8.30;;;5.00;;
828;SDS011;396;52.558;13.188;2022-08-19T13:21:17;8.00;;;5.00;;
828;SDS011;396;52.558;13.188;2022-08-19T13:23:46;7.70;;;4.40;;
828;SDS011;396;52.558;13.188;2022-08-19T13:26:12;8.33;;;5.37;;
828;SDS011;396;52.558;13.188;2022-08-19T13:28:40;8.80;;;5.10;;
828;SDS011;396;52.558;13.188;2022-08-19T13:31:26;10.50;;;4.97;;
828;SDS011;396;52.558;13.188;2022-08-19T13:34:13;7.53;;;4.00;;
828;SDS011;396;52.558;13.188;2022-08-19T13:36:40;8.97;;;4.57;;
828;SDS011;396;52.558;13.188;2022-08-19T13:39:07;7.90;;;4.90;;
828;SDS011;396;52.558;13.188;2022-08-19T13:41:34;8.83;;;5.13;;
828;SDS011;396;52.558;13.188;2022-08-19T13:44:01;7.83;;;4.90;;
828;SDS011;396;52.558;13.188;2022-08-19T13:46:28;8.13;;;5.00;;
828;SDS011;396;52.558;13.188;2022-08-19T13:48:55;7.03;;;4.40;;
828;SDS011;396;52.558;13.188;2022-08-19T13:51:23;10.03;;;5.67;;
828;SDS011;396;52.558;13.188;2022-08-19T13:53:50;7.27;;;4.77;;
828;SDS011;396;52.558;13.188;2022-08-19T13:56:17;6.60;;;4.60;;
828;SDS011;396;52.558;13.188;2022-08-19T13:58:45;7.50;;;5.30;;
828;SDS011;396;52.558;13.188;2022-08-19T14:01:11;7.33;;;4.00;;
828;SDS011;396;52.558;13.188;2022-08-19T14:03:38;8.33;;;4.97;;
828;SDS011;396;52.558;13.188;2022-08-19T14:06:04;7.53;;;4.67;;
828;SDS011;396;52.558;13.188;2022-08-19T14:08:32;8.23;;;4.93;;
828;SDS011;396;52.558;13.188;2022-08-19T14:11:00;7.80;;;5.60;;
828;SDS011;396;52.558;13.188;2022-08-19T14:13:26;17.40;;;6.07;;
828;SDS011;396;52.558;13.188;2022-08-19T14:15:52;9.73;;;5.57;;
828;SDS011;396;52.558;13.188;2022-08-19T14:18:19;9.20;;;5.33;;
828;SDS011;396;52.558;13.188;2022-08-19T14:20:46;8.80;;;5.37;;
828;SDS011;396;52.558;13.188;2022-08-19T14:23:12;9.70;;;5.10;;
828;SDS011;396;52.558;13.188;2022-08-19T14:25:40;8.93;;;5.33;;
828;SDS011;396;52.558;13.188;2022-08-19T14:28:07;7.50;;;4.50;;
828;SDS011;396;52.558;13.188;2022-08-19T14:30:34;6.23;;;4.37;;
828;SDS011;396;52.558;13.188;2022-08-19T14:33:03;8.87;;;4.50;;
828;SDS011;396;52.558;13.188;2022-08-19T14:35:32;8.80;;;4.30;;
828;SDS011;396;52.558;13.188;2022-08-19T14:37:59;6.03;;;4.00;;
828;SDS011;396;52.558;13.188;2022-08-19T14:40:27;7.83;;;4.77;;
828;SDS011;396;52.558;13.188;2022-08-19T14:42:57;7.20;;;4.30;;
828;SDS011;396;52.558;13.188;2022-08-19T14:45:29;6.90;;;4.43;;
828;SDS011;396;52.558;13.188;2022-08-19T14:47:58;8.10;;;4.90;;
828;SDS011;396;52.558;13.188;2022-08-19T14:50:25;12.07;;;5.60;;
828;SDS011;396;52.558;13.188;2022-08-19T14:52:57;7.53;;;4.70;;
828;SDS011;396;52.558;13.188;2022-08-19T14:55:24;9.53;;;4.90;;
828;SDS011;396;52.558;13.188;2022-08-19T14:57:51;9.40;;;4.80;;
828;SDS011;396;52.558;13.188;2022-08-19T15:00:19;7.60;;;4.87;;
828;SDS011;396;52.558;13.188;2022-08-19T15:02:45;9.10;;;3.67;;
828;SDS011;396;52.558;13.188;2022-08-19T15:05:12;8.70;;;4.60;;
828;SDS011;396;52.558;13.188;2022-08-19T15:07:39;6.93;;;4.37;;
828;SDS011;396;52.558;13.188;2022-08-19T15:10:06;9.30;;;5.37;;
828;SDS011;396;52.558;13.188;2022-08-19T15:12:34;7.30;;;4.63;;
828;SDS011;396;52.558;13.188;2022-08-19T15:15:03;7.90;;;5.07;;
828;SDS011;396;52.558;13.188;2022-08-19T15:17:31;8.00;;;5.70;;
828;SDS011;396;52.558;13.188;2022-08-19T15:19:58;10.97;;;6.23;;
828;SDS011;396;52.558;13.188;2022-08-19T15:22:26;10.07;;;5.90;;
828;SDS011;396;52.558;13.188;2022-08-19T15:24:52;9.03;;;5.10;;
828;SDS011;396;52.558;13.188;2022-08-19T15:27:19;8.77;;;5.83;;
828;SDS011;396;52.558;13.188;2022-08-19T15:29:45;11.00;;;6.23;;
828;SDS011;396;52.558;13.188;2022-08-19T15:32:12;9.47;;;5.27;;
828;SDS011;396;52.558;13.188;2022-08-19T15:34:40;7.37;;;4.70;;
828;SDS011;396;52.558;13.188;2022-08-19T15:37:06;8.73;;;5.20;;
828;SDS011;396;52.558;13.188;2022-08-19T15:39:32;8.93;;;5.63;;
828;SDS011;396;52.558;13.188;2022-08-19T15:42:00;9.13;;;5.00;;
828;SDS011;396;52.558;13.188;2022-08-19T15:44:27;8.57;;;5.10;;
828;SDS011;396;52.558;13.188;2022-08-19T15:46:54;8.07;;;4.40;;